createdAt,value
2018-07-16T00:01:14.384Z,986.83
2018-07-16T00:02:13.388Z,986.77
2018-07-16T00:03:13.388Z,986.81
2018-07-16T00:03:52.390Z,986.83
2018-07-16T00:04:51.987Z,986.77
2018-07-16T00:06:13.888Z,986.78
2018-07-16T00:08:24.385Z,986.77
2018-07-16T00:09:24.390Z,986.78
2018-07-16T00:10:24.392Z,986.77
2018-07-16T00:11:24.017Z,986.75
2018-07-16T00:12:45.906Z,986.79
2018-07-16T00:13:24.893Z,986.79
2018-07-16T00:14:45.918Z,986.79
2018-07-16T00:15:26.353Z,986.78
2018-07-16T00:16:48.393Z,986.80
2018-07-16T00:17:39.392Z,986.83
2018-07-16T00:18:25.392Z,986.82
2018-07-16T00:20:57.139Z,986.79
2018-07-16T00:21:57.146Z,986.78
2018-07-16T00:22:57.145Z,986.77
2018-07-16T00:23:57.653Z,986.79
2018-07-16T00:24:57.647Z,986.80
2018-07-16T00:25:57.646Z,986.77
2018-07-16T00:26:57.646Z,986.80
2018-07-16T00:31:01.349Z,986.73
2018-07-16T00:32:01.359Z,986.75
2018-07-16T00:33:22.359Z,986.74
2018-07-16T00:35:33.106Z,986.71
2018-07-16T00:36:33.117Z,986.75
2018-07-16T00:37:33.113Z,986.71
2018-07-16T00:40:04.936Z,986.74
2018-07-16T00:41:04.888Z,986.71
2018-07-16T00:42:04.888Z,986.71
2018-07-16T00:44:36.633Z,986.70
2018-07-16T00:45:59.572Z,986.71
2018-07-16T00:46:36.639Z,986.71
2018-07-16T00:51:00.815Z,986.69
2018-07-16T00:51:39.821Z,986.66
2018-07-16T00:54:11.448Z,986.66
2018-07-16T00:55:11.462Z,986.67
2018-07-16T00:56:32.468Z,986.68
2018-07-16T00:57:11.956Z,986.73
2018-07-16T00:58:11.955Z,986.70
2018-07-16T00:59:12.956Z,986.72
2018-07-16T01:00:32.956Z,986.73
2018-07-16T01:01:33.455Z,986.69
2018-07-16T01:02:11.682Z,986.72
2018-07-16T01:03:12.456Z,986.67
2018-07-16T01:04:12.456Z,986.72
2018-07-16T01:05:12.963Z,986.74
2018-07-16T01:06:33.963Z,986.73
2018-07-16T01:07:12.336Z,986.73
2018-07-16T01:08:12.956Z,986.73
2018-07-16T01:09:13.481Z,986.74
2018-07-16T01:10:13.456Z,986.76
2018-07-16T01:11:12.805Z,986.71
2018-07-16T01:12:13.460Z,986.72
2018-07-16T01:13:13.956Z,986.77
2018-07-16T01:14:13.968Z,986.76
2018-07-16T01:15:13.956Z,986.73
2018-07-16T01:16:13.961Z,986.68
2018-07-16T01:17:13.561Z,986.71
2018-07-16T01:18:14.456Z,986.64
2018-07-16T01:19:14.455Z,986.68
2018-07-16T01:20:14.457Z,986.69
2018-07-16T01:21:14.055Z,986.69
2018-07-16T01:22:14.997Z,986.67
2018-07-16T01:23:14.955Z,986.68
2018-07-16T01:24:14.977Z,986.67
2018-07-16T01:25:14.575Z,986.69
2018-07-16T01:26:15.456Z,986.69
2018-07-16T01:27:36.455Z,986.69
2018-07-16T01:28:15.455Z,986.72
2018-07-16T01:29:15.955Z,986.67
2018-07-16T01:30:15.952Z,986.69
2018-07-16T01:31:15.954Z,986.64
2018-07-16T01:32:15.961Z,986.68
2018-07-16T01:33:16.476Z,986.60
2018-07-16T01:34:30.476Z,986.65
2018-07-16T01:35:16.457Z,986.61
2018-07-16T01:36:40.887Z,986.63
2018-07-16T01:37:16.956Z,986.59
2018-07-16T01:39:48.325Z,986.61
2018-07-16T01:40:48.337Z,986.61
2018-07-16T01:41:48.830Z,986.63
2018-07-16T01:42:50.266Z,986.62
2018-07-16T01:43:49.765Z,986.57
2018-07-16T01:44:50.827Z,986.66
2018-07-16T01:45:48.833Z,986.61
2018-07-16T01:46:48.437Z,986.65
2018-07-16T01:47:49.390Z,986.67
2018-07-16T01:48:49.333Z,986.65
2018-07-16T01:49:49.332Z,986.67
2018-07-16T01:50:49.332Z,986.66
2018-07-16T01:51:50.765Z,986.67
2018-07-16T01:54:21.233Z,986.70
2018-07-16T01:55:21.242Z,986.65
2018-07-16T01:56:21.235Z,986.67
2018-07-16T01:57:21.738Z,986.69
2018-07-16T01:58:21.739Z,986.69
2018-07-16T01:59:21.745Z,986.66
2018-07-16T02:00:21.736Z,986.63
2018-07-16T02:01:49.243Z,986.65
2018-07-16T02:02:28.261Z,986.61
2018-07-16T02:03:22.236Z,986.67
2018-07-16T02:04:22.241Z,986.64
2018-07-16T02:05:22.735Z,986.64
2018-07-16T02:06:23.681Z,986.64
2018-07-16T02:07:22.736Z,986.63
2018-07-16T02:08:43.735Z,986.63
2018-07-16T02:09:22.743Z,986.62
2018-07-16T02:10:29.237Z,986.62
2018-07-16T02:11:23.239Z,986.64
2018-07-16T02:12:23.235Z,986.64
2018-07-16T02:13:23.235Z,986.60
2018-07-16T02:17:26.428Z,986.59
2018-07-16T02:18:26.476Z,986.60
2018-07-16T02:19:26.436Z,986.62
2018-07-16T02:20:26.440Z,986.61
2018-07-16T02:23:19.196Z,986.57
2018-07-16T02:23:58.208Z,986.56
2018-07-16T02:24:58.210Z,986.56
2018-07-16T02:25:58.703Z,986.58
2018-07-16T02:26:57.952Z,986.59
2018-07-16T02:27:58.709Z,986.59
2018-07-16T02:28:58.704Z,986.54
2018-07-16T02:29:59.205Z,986.58
2018-07-16T02:31:20.204Z,986.56
2018-07-16T02:31:59.204Z,986.58
2018-07-16T02:32:59.199Z,986.58
2018-07-16T02:33:59.708Z,986.57
2018-07-16T02:34:58.925Z,986.58
2018-07-16T02:35:59.710Z,986.57
2018-07-16T02:36:59.704Z,986.64
2018-07-16T02:37:59.308Z,986.63
2018-07-16T02:39:00.204Z,986.64
2018-07-16T02:40:00.208Z,986.65
2018-07-16T02:41:00.204Z,986.65
2018-07-16T02:42:00.704Z,986.66
2018-07-16T02:43:00.714Z,986.67
2018-07-16T02:44:00.701Z,986.65
2018-07-16T02:45:00.199Z,986.69
2018-07-16T02:46:01.204Z,986.66
2018-07-16T02:47:22.205Z,986.63
2018-07-16T02:48:01.207Z,986.65
2018-07-16T02:49:01.216Z,986.66
2018-07-16T02:51:33.019Z,986.66
2018-07-16T02:54:04.508Z,986.70
2018-07-16T02:55:04.516Z,986.72
2018-07-16T02:56:04.517Z,986.70
2018-07-16T02:57:05.016Z,986.70
2018-07-16T02:58:05.015Z,986.68
2018-07-16T02:59:05.013Z,986.74
2018-07-16T03:00:08.950Z,986.68
2018-07-16T03:01:05.515Z,986.71
2018-07-16T03:02:05.515Z,986.69
2018-07-16T03:03:05.516Z,986.68
2018-07-16T03:04:05.519Z,986.67
2018-07-16T03:05:05.516Z,986.69
2018-07-16T03:06:06.022Z,986.68
2018-07-16T03:07:05.254Z,986.67
2018-07-16T03:08:06.016Z,986.66
2018-07-16T03:09:06.015Z,986.64
2018-07-16T03:11:58.770Z,986.63
2018-07-16T03:12:37.777Z,986.66
2018-07-16T03:13:37.775Z,986.62
2018-07-16T03:14:59.287Z,986.66
2018-07-16T03:15:41.209Z,986.60
2018-07-16T03:16:39.709Z,986.62
2018-07-16T03:17:38.279Z,986.61
2018-07-16T03:18:37.877Z,986.62
2018-07-16T03:19:59.777Z,986.63
2018-07-16T03:20:59.778Z,986.60
2018-07-16T03:21:38.253Z,986.60
2018-07-16T03:24:10.535Z,986.59
2018-07-16T03:25:31.541Z,986.57
2018-07-16T03:26:31.541Z,986.57
2018-07-16T03:30:13.744Z,986.59
2018-07-16T03:31:13.750Z,986.61
2018-07-16T03:32:13.753Z,986.61
2018-07-16T03:33:14.250Z,986.61
2018-07-16T03:34:14.250Z,986.60
2018-07-16T03:35:14.252Z,986.62
2018-07-16T03:36:14.250Z,986.65
2018-07-16T03:37:14.750Z,986.60
2018-07-16T03:38:14.750Z,986.64
2018-07-16T03:39:14.750Z,986.63
2018-07-16T03:40:14.749Z,986.60
2018-07-16T03:41:14.343Z,986.60
2018-07-16T03:42:15.247Z,986.58
2018-07-16T03:43:15.254Z,986.61
2018-07-16T03:44:15.250Z,986.60
2018-07-16T03:45:15.750Z,986.62
2018-07-16T03:46:15.754Z,986.65
2018-07-16T03:47:15.761Z,986.64
2018-07-16T03:48:15.752Z,986.64
2018-07-16T03:49:16.250Z,986.60
2018-07-16T03:50:15.488Z,986.58
2018-07-16T03:51:16.253Z,986.59
2018-07-16T03:52:16.250Z,986.61
2018-07-16T03:56:19.457Z,986.58
2018-07-16T03:57:19.453Z,986.60
2018-07-16T03:58:19.457Z,986.62
2018-07-16T03:59:19.953Z,986.60
2018-07-16T04:00:19.954Z,986.66
2018-07-16T04:01:41.046Z,986.64
2018-07-16T04:02:19.963Z,986.66
2018-07-16T04:03:20.454Z,986.69
2018-07-16T04:05:51.833Z,986.62
2018-07-16T04:07:12.842Z,986.63
2018-07-16T04:07:51.319Z,986.60
2018-07-16T04:10:44.570Z,986.59
2018-07-16T04:11:23.602Z,986.60
2018-07-16T04:12:44.577Z,986.60
2018-07-16T04:13:24.079Z,986.62
2018-07-16T04:14:45.076Z,986.61
2018-07-16T04:15:24.077Z,986.61
2018-07-16T04:16:24.077Z,986.58
2018-07-16T04:17:24.582Z,986.56
2018-07-16T04:18:45.578Z,986.56
2018-07-16T04:19:23.931Z,986.58
2018-07-16T04:20:26.579Z,986.56
2018-07-16T04:21:46.077Z,986.57
2018-07-16T04:22:46.077Z,986.52
2018-07-16T04:23:25.120Z,986.53
2018-07-16T04:24:25.085Z,986.54
2018-07-16T04:26:57.324Z,986.52
2018-07-16T04:27:57.331Z,986.52
2018-07-16T04:28:57.331Z,986.47
2018-07-16T04:29:57.331Z,986.50
2018-07-16T04:34:21.493Z,986.46
2018-07-16T04:35:21.505Z,986.44
2018-07-16T04:36:21.500Z,986.44
2018-07-16T04:38:32.257Z,986.46
2018-07-16T04:39:32.265Z,986.50
2018-07-16T04:40:32.265Z,986.49
2018-07-16T04:41:53.765Z,986.44
2018-07-16T04:44:04.148Z,986.48
2018-07-16T04:45:04.151Z,986.46
2018-07-16T04:46:04.154Z,986.46
2018-07-16T04:48:35.898Z,986.48
2018-07-16T04:49:35.910Z,986.49
2018-07-16T04:50:35.906Z,986.46
2018-07-16T04:51:36.404Z,986.49
2018-07-16T04:52:36.404Z,986.45
2018-07-16T04:53:36.403Z,986.45
2018-07-16T04:54:57.404Z,986.48
2018-07-16T04:55:36.907Z,986.52
2018-07-16T04:56:37.902Z,986.49
2018-07-16T04:57:36.904Z,986.57
2018-07-16T04:58:36.905Z,986.53
2018-07-16T04:59:37.409Z,986.57
2018-07-16T05:05:13.660Z,986.59
2018-07-16T05:06:32.666Z,986.62
2018-07-16T05:07:11.662Z,986.57
2018-07-16T05:08:34.626Z,986.58
2018-07-16T05:09:34.122Z,986.53
2018-07-16T05:10:13.103Z,986.63
2018-07-16T05:11:12.165Z,986.61
2018-07-16T05:12:11.645Z,986.60
2018-07-16T05:13:32.741Z,986.58
2018-07-16T05:14:12.666Z,986.59
2018-07-16T05:15:35.099Z,986.59
2018-07-16T05:16:12.666Z,986.56
2018-07-16T05:17:12.018Z,986.58
2018-07-16T05:18:12.776Z,986.54
2018-07-16T05:19:13.165Z,986.58
2018-07-16T05:20:13.166Z,986.55
2018-07-16T05:21:13.166Z,986.54
2018-07-16T05:22:12.652Z,986.56
2018-07-16T05:23:34.672Z,986.55
2018-07-16T05:24:15.673Z,986.52
2018-07-16T05:25:13.013Z,986.51
2018-07-16T05:26:13.671Z,986.55
2018-07-16T05:27:14.167Z,986.49
2018-07-16T05:28:14.172Z,986.51
2018-07-16T05:29:13.533Z,986.49
2018-07-16T05:30:13.631Z,986.45
2018-07-16T05:31:15.605Z,986.48
2018-07-16T05:32:14.747Z,986.47
2018-07-16T05:33:20.666Z,986.52
2018-07-16T05:35:46.183Z,986.51
2018-07-16T05:36:46.190Z,986.56
2018-07-16T05:37:46.192Z,986.53
2018-07-16T05:38:46.701Z,986.54
2018-07-16T05:39:46.690Z,986.55
2018-07-16T05:40:46.691Z,986.56
2018-07-16T05:41:46.692Z,986.53
2018-07-16T05:42:47.204Z,986.54
2018-07-16T05:43:46.466Z,986.53
2018-07-16T05:44:50.122Z,986.53
2018-07-16T05:45:46.672Z,986.57
2018-07-16T05:46:47.693Z,986.53
2018-07-16T05:47:49.123Z,986.50
2018-07-16T05:49:08.693Z,986.45
2018-07-16T05:49:47.694Z,986.46
2018-07-16T05:51:08.288Z,986.45
2018-07-16T05:52:09.190Z,986.44
2018-07-16T05:53:09.192Z,986.42
2018-07-16T05:54:09.193Z,986.39
2018-07-16T05:54:49.622Z,986.39
2018-07-16T05:56:09.691Z,986.43
2018-07-16T05:57:09.691Z,986.39
2018-07-16T05:58:09.702Z,986.42
2018-07-16T05:58:49.196Z,986.41
2018-07-16T06:00:10.195Z,986.42
2018-07-16T06:01:10.193Z,986.42
2018-07-16T06:01:55.691Z,986.40
2018-07-16T06:02:48.791Z,986.39
2018-07-16T06:04:10.700Z,986.41
2018-07-16T06:04:49.757Z,986.44
2018-07-16T06:07:21.387Z,986.46
2018-07-16T06:08:21.391Z,986.46
2018-07-16T06:09:21.370Z,986.44
2018-07-16T06:10:21.873Z,986.40
2018-07-16T06:11:23.903Z,986.43
2018-07-16T06:12:21.870Z,986.41
2018-07-16T06:13:21.870Z,986.43
2018-07-16T06:16:00.118Z,986.44
2018-07-16T06:17:16.101Z,986.40
2018-07-16T06:18:15.122Z,986.43
2018-07-16T06:18:54.121Z,986.40
2018-07-16T06:22:57.312Z,986.46
2018-07-16T06:23:58.335Z,986.44
2018-07-16T06:24:59.241Z,986.43
2018-07-16T06:29:00.473Z,986.44
2018-07-16T06:29:59.824Z,986.41
2018-07-16T06:31:00.487Z,986.40
2018-07-16T06:32:14.976Z,986.42
2018-07-16T06:36:24.792Z,986.47
2018-07-16T06:37:25.844Z,986.44
2018-07-16T06:38:03.798Z,986.45
2018-07-16T06:39:25.266Z,986.45
2018-07-16T06:40:25.452Z,986.46
2018-07-16T06:41:04.614Z,986.45
2018-07-16T06:42:05.262Z,986.45
2018-07-16T06:44:57.009Z,986.47
2018-07-16T06:45:37.013Z,986.45
2018-07-16T06:46:36.021Z,986.47
2018-07-16T06:49:16.701Z,986.43
2018-07-16T06:50:21.781Z,986.45
2018-07-16T06:51:28.766Z,986.38
2018-07-16T06:53:40.029Z,986.37
2018-07-16T06:55:00.370Z,986.37
2018-07-16T06:56:02.968Z,986.41
2018-07-16T06:58:32.814Z,986.45
2018-07-16T06:59:13.853Z,986.47
2018-07-16T07:00:32.821Z,986.42
2018-07-16T07:01:13.345Z,986.45
2018-07-16T07:02:26.409Z,986.41
2018-07-16T07:03:11.670Z,986.40
2018-07-16T07:04:12.321Z,986.43
2018-07-16T07:05:12.821Z,986.41
2018-07-16T07:06:33.815Z,986.40
2018-07-16T07:07:13.754Z,986.41
2018-07-16T07:08:12.822Z,986.46
2018-07-16T07:09:13.785Z,986.46
2018-07-16T07:10:27.327Z,986.48
2018-07-16T07:11:13.328Z,986.50
2018-07-16T07:12:34.328Z,986.47
2018-07-16T07:13:13.822Z,986.51
2018-07-16T07:17:15.949Z,986.45
2018-07-16T07:18:18.009Z,986.46
2018-07-16T07:19:16.662Z,986.43
2018-07-16T07:20:17.156Z,986.43
2018-07-16T07:21:19.156Z,986.43
2018-07-16T07:22:17.157Z,986.40
2018-07-16T07:23:16.631Z,986.36
2018-07-16T07:24:31.657Z,986.37
2018-07-16T07:25:19.142Z,986.37
2018-07-16T07:27:17.656Z,986.32
2018-07-16T07:28:19.122Z,986.35
2018-07-16T07:29:17.231Z,986.37
2018-07-16T07:30:38.349Z,986.34
2018-07-16T07:31:19.595Z,986.31
2018-07-16T07:32:24.156Z,986.33
2018-07-16T07:33:24.657Z,986.32
2018-07-16T07:34:20.674Z,986.33
2018-07-16T07:35:18.737Z,986.38
2018-07-16T07:36:19.589Z,986.34
2018-07-16T07:38:50.403Z,986.30
2018-07-16T07:39:49.756Z,986.30
2018-07-16T07:41:11.411Z,986.31
2018-07-16T07:42:11.911Z,986.32
2018-07-16T07:43:11.918Z,986.33
2018-07-16T07:46:53.876Z,986.36
2018-07-16T07:47:53.883Z,986.37
2018-07-16T07:48:53.883Z,986.36
2018-07-16T07:51:24.915Z,986.32
2018-07-16T07:52:25.651Z,986.30
2018-07-16T07:53:25.649Z,986.28
2018-07-16T07:54:25.270Z,986.33
2018-07-16T07:57:20.526Z,986.30
2018-07-16T07:57:57.477Z,986.31
2018-07-16T07:58:58.448Z,986.30
2018-07-16T07:59:58.016Z,986.32
2018-07-16T08:02:35.405Z,986.30
2018-07-16T08:03:28.796Z,986.30
2018-07-16T08:04:30.847Z,986.26
2018-07-16T08:05:34.344Z,986.28
2018-07-16T08:08:22.231Z,986.23
2018-07-16T08:13:34.954Z,986.20
2018-07-16T08:14:35.649Z,986.20
2018-07-16T08:15:35.649Z,986.23
2018-07-16T08:16:57.148Z,986.21
2018-07-16T08:17:36.150Z,986.17
2018-07-16T08:18:35.501Z,986.16
2018-07-16T08:19:36.151Z,986.18
2018-07-16T08:20:38.116Z,986.17
2018-07-16T08:21:36.649Z,986.14
2018-07-16T08:22:36.651Z,986.14
2018-07-16T08:23:36.692Z,986.14
2018-07-16T08:24:37.150Z,986.13
2018-07-16T08:25:36.398Z,986.11
2018-07-16T08:26:37.149Z,986.15
2018-07-16T08:27:37.154Z,986.14
2018-07-16T08:31:41.280Z,986.16
2018-07-16T08:33:02.346Z,986.14
2018-07-16T08:33:40.358Z,986.13
2018-07-16T08:34:40.855Z,986.14
2018-07-16T08:35:40.850Z,986.18
2018-07-16T08:38:12.191Z,986.18
2018-07-16T08:39:12.952Z,986.16
2018-07-16T08:40:13.352Z,986.17
2018-07-16T08:41:13.408Z,986.14
2018-07-16T08:42:13.409Z,986.19
2018-07-16T08:43:13.407Z,986.17
2018-07-16T08:44:12.764Z,986.12
2018-07-16T08:45:13.407Z,986.14
2018-07-16T08:46:13.926Z,986.11
2018-07-16T08:47:36.910Z,986.11
2018-07-16T08:48:13.918Z,986.11
2018-07-16T08:49:13.401Z,986.08
2018-07-16T08:50:14.413Z,986.07
2018-07-16T08:51:13.640Z,986.09
2018-07-16T08:52:14.409Z,986.09
2018-07-16T08:53:13.913Z,986.07
2018-07-16T08:56:07.181Z,986.08
2018-07-16T08:56:45.537Z,986.09
2018-07-16T08:57:45.641Z,986.01
2018-07-16T09:00:38.934Z,986.02
2018-07-16T09:04:21.203Z,986.02
2018-07-16T09:05:21.197Z,986.02
2018-07-16T09:06:21.194Z,985.99
2018-07-16T09:07:23.697Z,986.00
2018-07-16T09:08:21.695Z,986.03
2018-07-16T09:09:21.693Z,985.98
2018-07-16T09:10:27.694Z,986.00
2018-07-16T09:11:45.196Z,985.97
2018-07-16T09:12:22.194Z,985.97
2018-07-16T09:13:23.248Z,985.98
2018-07-16T09:14:22.194Z,985.93
2018-07-16T09:16:55.471Z,985.98
2018-07-16T09:17:53.985Z,986.02
2018-07-16T09:18:53.985Z,985.97
2018-07-16T09:24:34.976Z,985.99
2018-07-16T09:25:29.012Z,985.97
2018-07-16T09:28:02.685Z,985.97
2018-07-16T09:29:00.659Z,985.96
2018-07-16T09:30:21.659Z,985.96
2018-07-16T09:31:01.161Z,985.95
2018-07-16T09:32:07.168Z,985.95
2018-07-16T09:33:01.159Z,985.94
2018-07-16T09:34:01.159Z,985.91
2018-07-16T09:35:01.660Z,985.91
2018-07-16T09:36:27.591Z,985.92
2018-07-16T09:37:01.012Z,985.96
2018-07-16T09:39:35.377Z,985.91
2018-07-16T09:40:56.379Z,985.92
2018-07-16T09:41:54.379Z,985.92
2018-07-16T09:42:53.971Z,985.90
2018-07-16T09:43:33.121Z,985.90
2018-07-16T09:49:22.285Z,985.82
2018-07-16T09:50:08.298Z,985.83
2018-07-16T09:51:08.298Z,985.79
2018-07-16T09:53:46.558Z,985.73
2018-07-16T09:55:01.571Z,985.72
2018-07-16T09:56:01.599Z,985.74
2018-07-16T09:58:12.328Z,985.73
2018-07-16T09:59:26.341Z,985.67
2018-07-16T10:00:12.851Z,985.67
2018-07-16T10:01:35.847Z,985.68
2018-07-16T10:02:12.078Z,985.64
2018-07-16T10:03:12.835Z,985.62
2018-07-16T10:04:15.304Z,985.57
2018-07-16T10:05:13.840Z,985.60
2018-07-16T10:07:45.289Z,985.56
2018-07-16T10:08:59.243Z,985.58
2018-07-16T10:10:07.716Z,985.57
2018-07-16T10:12:16.765Z,985.54
2018-07-16T10:13:16.763Z,985.52
2018-07-16T10:14:16.775Z,985.55
2018-07-16T10:15:16.397Z,985.51
2018-07-16T10:16:19.741Z,985.55
2018-07-16T10:17:17.263Z,985.52
2018-07-16T10:18:17.262Z,985.49
2018-07-16T10:19:20.695Z,985.48
2018-07-16T10:20:17.772Z,985.49
2018-07-16T10:21:38.137Z,985.45
2018-07-16T10:22:17.764Z,985.42
2018-07-16T10:23:18.263Z,985.41
2018-07-16T10:24:19.696Z,985.39
2018-07-16T10:28:35.229Z,985.33
2018-07-16T10:29:35.226Z,985.31
2018-07-16T10:30:27.216Z,985.28
2018-07-16T10:31:23.723Z,985.25
2018-07-16T10:35:23.892Z,985.29
2018-07-16T10:36:24.568Z,985.26
2018-07-16T10:37:27.077Z,985.23
2018-07-16T10:38:46.102Z,985.25
2018-07-16T10:39:27.080Z,985.23
2018-07-16T10:40:25.072Z,985.26
2018-07-16T10:45:11.080Z,985.15
2018-07-16T10:54:26.339Z,985.14
2018-07-16T10:55:03.881Z,985.13
2018-07-16T10:56:03.858Z,985.07
2018-07-16T10:57:06.369Z,985.04
2018-07-16T10:58:04.359Z,985.08
2018-07-16T10:59:25.355Z,985.06
2018-07-16T11:01:10.868Z,985.05
2018-07-16T11:02:28.861Z,985.07
2018-07-16T11:04:58.316Z,985.06
2018-07-16T11:07:28.159Z,985.02
2018-07-16T11:08:09.863Z,984.99
2018-07-16T11:09:07.922Z,985.02
2018-07-16T11:12:51.219Z,985.00
2018-07-16T11:13:59.656Z,984.99
2018-07-16T11:14:37.224Z,984.98
2018-07-16T11:15:59.223Z,984.98
2018-07-16T11:16:58.735Z,984.98
2018-07-16T11:17:37.726Z,984.93
2018-07-16T11:19:04.726Z,984.96
2018-07-16T11:19:37.727Z,984.96
2018-07-16T11:20:38.224Z,984.93
2018-07-16T11:21:39.233Z,984.86
2018-07-16T11:22:38.315Z,984.86
2018-07-16T11:23:38.248Z,984.84
2018-07-16T11:24:38.727Z,984.83
2018-07-16T11:25:58.965Z,984.82
2018-07-16T11:26:38.744Z,984.78
2018-07-16T11:27:38.726Z,984.75
2018-07-16T11:28:47.158Z,984.76
2018-07-16T11:29:38.503Z,984.78
2018-07-16T11:30:38.613Z,984.76
2018-07-16T11:31:38.747Z,984.81
2018-07-16T11:37:15.909Z,984.83
2018-07-16T11:38:15.936Z,984.80
2018-07-16T11:39:13.936Z,984.78
2018-07-16T11:40:16.436Z,984.78
2018-07-16T11:42:46.344Z,984.76
2018-07-16T11:43:46.349Z,984.77
2018-07-16T11:45:07.410Z,984.73
2018-07-16T11:47:24.067Z,984.70
2018-07-16T11:48:38.429Z,984.68
2018-07-16T11:49:18.178Z,984.66
2018-07-16T11:50:20.581Z,984.67
2018-07-16T11:51:18.588Z,984.71
2018-07-16T11:52:18.646Z,984.70
2018-07-16T11:53:18.061Z,984.68
2018-07-16T11:55:50.438Z,984.64
2018-07-16T11:57:10.711Z,984.62
2018-07-16T11:57:50.372Z,984.61
2018-07-16T12:01:53.643Z,984.54
2018-07-16T12:03:15.630Z,984.52
2018-07-16T12:03:53.634Z,984.48
2018-07-16T12:04:56.135Z,984.45
2018-07-16T12:05:54.141Z,984.46
2018-07-16T12:06:58.073Z,984.41
2018-07-16T12:07:54.136Z,984.40
2018-07-16T12:09:08.635Z,984.50
2018-07-16T12:11:26.039Z,984.49
2018-07-16T12:12:25.497Z,984.49
2018-07-16T12:13:26.046Z,984.44
2018-07-16T12:14:49.026Z,984.41
2018-07-16T12:16:57.926Z,984.56
2018-07-16T12:17:57.929Z,984.46
2018-07-16T12:18:59.364Z,984.45
2018-07-16T12:21:28.975Z,984.46
2018-07-16T12:22:29.108Z,984.44
2018-07-16T12:23:29.708Z,984.54
2018-07-16T12:26:07.492Z,984.55
2018-07-16T12:27:01.498Z,984.58
2018-07-16T12:28:01.507Z,984.54
2018-07-16T12:29:22.999Z,984.61
2018-07-16T12:33:06.841Z,984.62
2018-07-16T12:35:43.313Z,984.60
2018-07-16T12:36:36.384Z,984.66
2018-07-16T12:37:36.384Z,984.59
2018-07-16T12:40:10.141Z,984.64
2018-07-16T12:41:08.190Z,984.58
2018-07-16T12:42:35.690Z,984.56
2018-07-16T12:43:29.695Z,984.57
2018-07-16T12:44:29.693Z,984.57
2018-07-16T12:45:08.693Z,984.60
2018-07-16T12:49:13.909Z,984.61
2018-07-16T12:50:35.848Z,984.63
2018-07-16T12:51:12.848Z,984.60
2018-07-16T12:52:32.502Z,984.56
2018-07-16T12:53:14.416Z,984.51
2018-07-16T12:54:34.849Z,984.49
2018-07-16T12:55:12.417Z,984.46
2018-07-16T12:56:14.918Z,984.47
2018-07-16T12:57:12.173Z,984.45
2018-07-16T12:58:12.917Z,984.49
2018-07-16T12:59:12.918Z,984.46
2018-07-16T13:00:19.417Z,984.47
2018-07-16T13:02:45.323Z,984.42
2018-07-16T13:03:44.805Z,984.41
2018-07-16T13:04:47.827Z,984.35
2018-07-16T13:05:47.784Z,984.28
2018-07-16T13:06:45.828Z,984.23
2018-07-16T13:07:45.825Z,984.15
2018-07-16T13:09:13.329Z,984.10
2018-07-16T13:10:00.339Z,984.09
2018-07-16T13:11:07.328Z,984.05
2018-07-16T13:12:09.294Z,984.04
2018-07-16T13:14:18.072Z,984.03
2018-07-16T13:15:18.084Z,983.99
2018-07-16T13:16:39.086Z,983.93
2018-07-16T13:20:27.326Z,983.95
2018-07-16T13:21:44.337Z,983.94
2018-07-16T13:22:21.323Z,983.96
2018-07-16T13:23:23.824Z,983.98
2018-07-16T13:25:59.221Z,984.01
2018-07-16T13:26:53.229Z,984.05
2018-07-16T13:28:14.229Z,984.06
2018-07-16T13:28:52.829Z,984.03
2018-07-16T13:31:27.084Z,984.05
2018-07-16T13:32:25.620Z,984.02
2018-07-16T13:34:57.127Z,984.03
2018-07-16T13:35:57.138Z,983.99
2018-07-16T13:36:57.145Z,984.06
2018-07-16T13:37:57.632Z,984.04
2018-07-16T13:42:00.493Z,984.02
2018-07-16T13:42:59.867Z,984.01
2018-07-16T13:44:00.498Z,984.02
2018-07-16T13:45:01.006Z,983.97
2018-07-16T13:47:34.401Z,983.99
2018-07-16T13:48:32.408Z,983.96
2018-07-16T13:49:59.405Z,983.96
2018-07-16T13:50:32.014Z,983.92
2018-07-16T13:51:32.907Z,983.94
2018-07-16T13:52:32.260Z,983.94
2018-07-16T13:53:32.910Z,983.95
2018-07-16T13:54:33.422Z,983.97
2018-07-16T13:55:55.844Z,983.98
2018-07-16T13:56:54.466Z,984.02
2018-07-16T13:57:34.840Z,983.99
2018-07-16T13:58:33.008Z,983.98
2018-07-16T13:59:54.911Z,983.99
2018-07-16T14:00:33.910Z,983.95
2018-07-16T14:01:33.910Z,984.01
2018-07-16T14:02:34.410Z,984.02
2018-07-16T14:03:34.409Z,984.01
2018-07-16T14:04:55.409Z,983.99
2018-07-16T14:05:34.415Z,983.99
2018-07-16T14:06:34.908Z,983.93
2018-07-16T14:07:34.908Z,983.88
2018-07-16T14:08:34.909Z,983.86
2018-07-16T14:09:34.909Z,983.88
2018-07-16T14:10:35.410Z,984.01
2018-07-16T14:11:56.412Z,983.92
2018-07-16T14:12:35.409Z,983.86
2018-07-16T14:13:35.412Z,983.84
2018-07-16T14:19:10.385Z,984.13
2018-07-16T14:20:10.392Z,984.05
2018-07-16T14:21:10.895Z,983.96
2018-07-16T14:22:10.894Z,983.83
2018-07-16T14:23:10.897Z,983.81
2018-07-16T14:24:12.354Z,983.79
2018-07-16T14:25:10.907Z,983.87
2018-07-16T14:28:03.694Z,984.03
2018-07-16T14:28:42.704Z,983.94
2018-07-16T14:29:42.700Z,983.76
2018-07-16T14:30:49.200Z,983.84
2018-07-16T14:32:03.482Z,983.93
2018-07-16T14:32:43.208Z,983.93
2018-07-16T14:33:43.200Z,983.94
2018-07-16T14:35:03.795Z,983.95
2018-07-16T14:37:15.079Z,983.96
2018-07-16T14:38:35.422Z,984.01
2018-07-16T14:39:15.107Z,983.95
2018-07-16T14:40:15.586Z,983.86
2018-07-16T14:41:17.044Z,984.03
2018-07-16T14:42:14.926Z,983.94
2018-07-16T14:43:15.586Z,983.97
2018-07-16T14:44:23.084Z,984.02
2018-07-16T14:45:16.087Z,983.96
2018-07-16T14:46:16.087Z,983.96
2018-07-16T14:47:16.086Z,983.84
2018-07-16T14:52:56.778Z,983.90
2018-07-16T14:54:11.785Z,983.91
2018-07-16T14:55:04.784Z,983.93
2018-07-16T14:55:58.217Z,983.89
2018-07-16T14:57:12.342Z,983.88
2018-07-16T14:58:12.285Z,983.83
2018-07-16T14:59:13.741Z,983.89
2018-07-16T15:01:05.717Z,983.87
2018-07-16T15:01:51.137Z,983.83
2018-07-16T15:02:53.217Z,983.86
2018-07-16T15:05:23.586Z,983.59
2018-07-16T15:06:23.602Z,983.83
2018-07-16T15:07:25.032Z,983.93
2018-07-16T15:08:24.110Z,983.87
2018-07-16T15:10:55.532Z,983.92
2018-07-16T15:11:54.893Z,983.96
2018-07-16T15:12:55.539Z,983.95
2018-07-16T15:13:56.067Z,983.91
2018-07-16T15:14:55.297Z,983.92
2018-07-16T15:15:56.047Z,983.92
2018-07-16T15:16:56.040Z,983.92
2018-07-16T15:18:17.542Z,983.94
2018-07-16T15:18:57.972Z,983.90
2018-07-16T15:19:57.992Z,983.95
2018-07-16T15:20:56.722Z,983.94
2018-07-16T15:21:59.041Z,983.93
2018-07-16T15:22:57.041Z,983.96
2018-07-16T15:24:18.039Z,984.00
2018-07-16T15:26:28.715Z,983.99
2018-07-16T15:27:28.723Z,984.00
2018-07-16T15:28:28.722Z,983.97
2018-07-16T15:29:28.335Z,984.00
2018-07-16T15:30:28.753Z,983.97
2018-07-16T15:31:29.229Z,983.96
2018-07-16T15:32:49.691Z,984.06
2018-07-16T15:33:29.723Z,984.04
2018-07-16T15:34:31.723Z,984.04
2018-07-16T15:35:31.771Z,984.01
2018-07-16T15:36:50.204Z,984.03
2018-07-16T15:37:44.223Z,984.01
2018-07-16T15:38:36.223Z,983.88
2018-07-16T15:39:30.222Z,983.79
2018-07-16T15:40:30.220Z,983.78
2018-07-16T15:42:05.723Z,983.77
2018-07-16T15:42:53.203Z,983.84
2018-07-16T15:43:32.155Z,983.78
2018-07-16T15:44:51.723Z,983.72
2018-07-16T15:47:02.515Z,983.72
2018-07-16T15:49:55.529Z,983.69
2018-07-16T15:50:34.534Z,983.81
2018-07-16T15:51:35.533Z,983.69
2018-07-16T15:52:34.533Z,983.71
2018-07-16T15:53:41.092Z,983.67
2018-07-16T15:54:35.034Z,983.66
2018-07-16T15:55:35.033Z,983.70
2018-07-16T15:56:35.040Z,983.68
2018-07-16T15:57:56.535Z,983.65
2018-07-16T15:58:35.538Z,983.62
2018-07-16T15:59:35.536Z,983.62